»·PEaware :: N121LW MMML-KMCC

N121LW :: MMML-KMCC

FLIGHT INFORMATION

Flight Status: Arrived
Operator: Privately registered:
United States
More flights under this callsign
Pilot: Lee W. (44)
Aircraft: CANADAIR CL-600 CRJ-200
(CRJ2)
More flights by this aircraft type
Origin: MMML Gen Rodolfo Sanchez Taboada
Mexico
Destination: KMCC McClellan
United States
More flights between these airports :: More routes between these airports
Route: +JLI J93 PDZ J50 EHF J65 SAC
File this flight plan on PilotEdge
Remarks:
Altitude:
(Current/Filed)
28,000ft
Speed:
(Current/Filed)
425kts
Departed: 29-Jul-12 06:21 PM
Arrived: 29-Jul-12 07:58 PM
Distance/Time
Traveled:
470nm/1:37
Distance/Time
To Go:
Arrived

Flight Plot

Page will automatically refresh every two minutes.


Map Options




Map Legend


Flown Route
Filed Route
Departure Airport
Arrival Airport
Navaid (VOR, NDB)
Fix

Horizontal Profiles

Position Reports

Time Latitude Longitude Heading Altitude Ground
Speed
29-Jul-12 18:04 32.628894 -115.246597 208 79ft 0kts
29-Jul-12 18:05 32.628894 -115.246597 208 79ft 0kts
29-Jul-12 18:06 32.628894 -115.246597 208 79ft 0kts
29-Jul-12 18:07 32.628894 -115.246597 208 79ft 0kts
29-Jul-12 18:08 32.628894 -115.246597 208 79ft 0kts
29-Jul-12 18:09 32.628894 -115.246597 208 79ft 0kts
29-Jul-12 18:10 32.628894 -115.246597 208 79ft 0kts
29-Jul-12 18:11 32.628894 -115.246597 208 79ft 0kts
29-Jul-12 18:12 32.628894 -115.246597 208 79ft 0kts
29-Jul-12 18:13 32.628894 -115.246597 208 79ft 0kts
29-Jul-12 18:14 32.628894 -115.246597 208 79ft 0kts
29-Jul-12 18:15 32.629137 -115.246705 52 79ft 4kts
29-Jul-12 18:16 32.631070 -115.247266 27 79ft 11kts
29-Jul-12 18:17 32.633243 -115.248136 297 79ft 11kts
29-Jul-12 18:18 32.634590 -115.251099 298 79ft 12kts
29-Jul-12 18:19 32.636155 -115.254371 221 79ft 7kts
29-Jul-12 18:20 32.627286 -115.234964 118 81ft 178kts
29-Jul-12 18:21 32.593861 -115.182335 136 3188ft 207kts
29-Jul-12 18:22 32.545916 -115.152814 206 6329ft 227kts
29-Jul-12 18:23 32.530441 -115.225927 281 8991ft 262kts
29-Jul-12 18:24 32.563536 -115.299630 327 11496ft 271kts
29-Jul-12 18:25 32.626202 -115.351926 327 13816ft 282kts
29-Jul-12 18:26 32.688277 -115.410975 307 15900ft 294kts
29-Jul-12 18:27 32.728462 -115.496756 295 17822ft 302kts
29-Jul-12 18:28 32.763953 -115.588030 294 19618ft 306kts
29-Jul-12 18:29 32.799455 -115.680883 294 21255ft 310kts
29-Jul-12 18:30 32.835445 -115.775285 295 22654ft 317kts
29-Jul-12 18:31 32.872104 -115.871748 294 23918ft 323kts
29-Jul-12 18:32 32.909223 -115.969740 294 25070ft 329kts
29-Jul-12 18:33 32.947111 -116.070076 294 26272ft 335kts
29-Jul-12 18:34 32.984548 -116.167968 294 27392ft 341kts
29-Jul-12 18:35 33.023301 -116.271143 295 28118ft 358kts
29-Jul-12 18:36 33.065751 -116.384232 294 28160ft 392kts
29-Jul-12 18:37 33.111524 -116.506927 293 28183ft 417kts
29-Jul-12 18:38 33.171985 -116.622544 312 28178ft 420kts
29-Jul-12 18:39 33.253928 -116.722202 313 28179ft 422kts
29-Jul-12 18:40 33.336516 -116.821738 314 28165ft 423kts
29-Jul-12 18:41 33.404621 -116.903882 314 28175ft 423kts
29-Jul-12 18:42 33.500401 -117.019940 314 28139ft 425kts
29-Jul-12 18:43 33.565403 -117.098879 315 28138ft 425kts
29-Jul-12 18:44 33.615062 -117.158378 315 28152ft 425kts
29-Jul-12 18:45 33.670208 -117.225350 314 28152ft 425kts
29-Jul-12 18:46 33.736693 -117.306605 314 28151ft 424kts
29-Jul-12 18:47 33.804087 -117.389097 313 28144ft 424kts
29-Jul-12 18:48 33.883914 -117.487085 313 28125ft 425kts
29-Jul-12 18:49 33.966839 -117.577221 318 28123ft 426kts
29-Jul-12 18:50 34.051273 -117.660032 318 28132ft 426kts
29-Jul-12 18:51 34.136355 -117.743565 318 28144ft 427kts
29-Jul-12 18:52 34.225559 -117.831434 318 28163ft 430kts
29-Jul-12 18:53 34.317578 -117.922253 318 28166ft 435kts
29-Jul-12 18:54 34.409401 -118.013164 317 28168ft 436kts
29-Jul-12 18:55 34.498454 -118.101830 316 28162ft 436kts
29-Jul-12 18:56 34.563122 -118.165306 316 28167ft 438kts
29-Jul-12 18:57 34.646968 -118.248879 316 28163ft 439kts
29-Jul-12 18:58 34.738242 -118.340198 317 28160ft 440kts
29-Jul-12 18:59 34.829724 -118.432013 317 28207ft 439kts
29-Jul-12 19:00 34.921817 -118.524793 318 28310ft 435kts
29-Jul-12 19:01 35.012571 -118.616375 319 28339ft 431kts
29-Jul-12 19:02 35.104098 -118.709288 319 28295ft 430kts
29-Jul-12 19:03 35.194380 -118.801030 319 28144ft 433kts
29-Jul-12 19:04 35.285315 -118.893695 320 28108ft 433kts
29-Jul-12 19:05 35.377214 -118.987565 319 28107ft 433kts
29-Jul-12 19:06 35.468789 -119.081494 319 28108ft 433kts
29-Jul-12 19:07 35.564242 -119.137037 336 28111ft 433kts
29-Jul-12 19:08 35.671468 -119.191204 336 28111ft 434kts
29-Jul-12 19:09 35.782897 -119.247671 336 28127ft 435kts
29-Jul-12 19:10 35.894329 -119.304299 336 28138ft 435kts
29-Jul-12 19:11 36.005972 -119.361214 336 28131ft 436kts
29-Jul-12 19:12 36.117972 -119.418502 337 28117ft 436kts
29-Jul-12 19:13 36.229648 -119.475738 337 28111ft 437kts
29-Jul-12 19:14 36.341652 -119.533352 337 28109ft 437kts
29-Jul-12 19:15 36.453647 -119.591123 337 28108ft 437kts
29-Jul-12 19:16 36.562602 -119.647474 336 28110ft 437kts
29-Jul-12 19:17 36.667634 -119.702028 336 28109ft 436kts
29-Jul-12 19:18 36.776005 -119.758466 335 28108ft 436kts
29-Jul-12 19:19 36.883190 -119.816809 322 28082ft 432kts
29-Jul-12 19:20 36.973383 -119.912104 317 28114ft 431kts
29-Jul-12 19:21 37.063446 -120.009996 317 28117ft 432kts
29-Jul-12 19:22 37.152615 -120.107262 317 28119ft 433kts
29-Jul-12 19:23 37.238187 -120.199911 317 28122ft 433kts
29-Jul-12 19:24 37.313493 -120.282567 318 28119ft 432kts
29-Jul-12 19:25 37.418448 -120.398217 320 28121ft 431kts
29-Jul-12 19:26 37.491650 -120.479014 320 27506ft 424kts
29-Jul-12 19:27 37.572566 -120.568645 318 25573ft 410kts
29-Jul-12 19:28 37.651784 -120.656814 318 23588ft 397kts
29-Jul-12 19:29 37.731204 -120.745376 318 21395ft 362kts
29-Jul-12 19:30 37.797458 -120.819426 318 21102ft 286kts
29-Jul-12 19:31 37.856040 -120.885112 318 19216ft 279kts
29-Jul-12 19:32 37.913265 -120.949400 318 17395ft 273kts
29-Jul-12 19:33 37.968894 -121.012040 318 15696ft 263kts
29-Jul-12 19:34 38.022725 -121.072759 319 13808ft 259kts
29-Jul-12 19:35 38.075006 -121.131033 319 12090ft 253kts
29-Jul-12 19:36 38.124189 -121.186265 318 10496ft 248kts
29-Jul-12 19:37 38.170387 -121.238634 317 10112ft 193kts
29-Jul-12 19:38 38.205698 -121.278783 316 10159ft 183kts
29-Jul-12 19:39 38.258577 -121.319150 5 10447ft 263kts
29-Jul-12 19:40 38.328327 -121.309168 4 10188ft 246kts
29-Jul-12 19:41 38.393609 -121.299522 4 10126ft 229kts
29-Jul-12 19:42 38.454922 -121.290298 4 9323ft 225kts
29-Jul-12 19:43 38.514687 -121.281287 4 8511ft 221kts
29-Jul-12 19:44 38.568696 -121.273140 4 7711ft 218kts
29-Jul-12 19:45 38.619103 -121.265575 4 6885ft 216kts
29-Jul-12 19:46 38.663424 -121.258965 4 6180ft 214kts
29-Jul-12 19:47 38.707624 -121.252412 4 5497ft 211kts
29-Jul-12 19:48 38.748348 -121.246448 4 4732ft 209kts
29-Jul-12 19:49 38.790495 -121.248435 344 4160ft 185kts
29-Jul-12 19:50 38.827682 -121.260198 344 4161ft 145kts
29-Jul-12 19:51 38.856222 -121.295387 278 4061ft 178kts
29-Jul-12 19:52 38.863525 -121.357643 269 3384ft 178kts
29-Jul-12 19:53 38.827061 -121.391748 205 2832ft 177kts
29-Jul-12 19:54 38.776831 -121.400457 181 1937ft 200kts
29-Jul-12 19:55 38.725242 -121.400537 181 948ft 201kts
29-Jul-12 19:56 38.679213 -121.400598 181 80ft 182kts
29-Jul-12 19:57 38.667614 -121.402248 259 80ft 14kts

Navigation Log

Ident Type
Flight plan parsing failed, navigation log unavailable